createdAt,value
2018-01-12T00:00:22.310Z,36.22
2018-01-12T00:02:50.520Z,38.75
2018-01-12T00:05:18.654Z,37.13
2018-01-12T00:07:46.801Z,43.22
2018-01-12T00:10:15.056Z,38.30
2018-01-12T00:12:44.019Z,40.45
2018-01-12T00:15:12.544Z,39.08
2018-01-12T00:17:41.048Z,35.70
2018-01-12T00:20:09.964Z,39.92
2018-01-12T00:22:38.870Z,32.60
2018-01-12T00:25:07.988Z,34.28
2018-01-12T00:27:36.114Z,35.28
2018-01-12T00:30:04.242Z,40.60
2018-01-12T00:32:32.516Z,41.65
2018-01-12T00:35:01.401Z,37.60
2018-01-12T00:37:29.533Z,34.08
2018-01-12T00:39:57.668Z,34.83
2018-01-12T00:42:25.823Z,29.10
2018-01-12T00:44:53.935Z,33.20
2018-01-12T00:47:22.054Z,32.20
2018-01-12T00:49:50.196Z,31.42
2018-01-12T00:52:18.411Z,31.20
2018-01-12T00:54:47.301Z,29.97
2018-01-12T00:57:15.419Z,24.60
2018-01-12T00:59:43.535Z,27.23
2018-01-12T01:02:11.659Z,25.03
2018-01-12T01:04:39.801Z,26.20
2018-01-12T01:07:08.040Z,25.45
2018-01-12T01:09:37.024Z,26.30
2018-01-12T01:12:06.913Z,23.30
2018-01-12T01:14:35.040Z,27.30
2018-01-12T01:17:03.181Z,26.05
2018-01-12T01:19:32.081Z,28.33
2018-01-12T01:22:00.207Z,25.98
2018-01-12T01:24:28.347Z,22.67
2018-01-12T01:26:56.487Z,27.62
2018-01-12T01:29:25.411Z,30.42
2018-01-12T01:31:53.520Z,29.05
2018-01-12T01:34:21.756Z,27.92
2018-01-12T01:36:50.624Z,26.80
2018-01-12T01:39:19.638Z,22.70
2018-01-12T01:41:48.495Z,23.65
2018-01-12T01:44:17.482Z,20.80
2018-01-12T01:46:46.379Z,22.83
2018-01-12T01:49:15.268Z,19.37
2018-01-12T01:51:44.164Z,23.80
2018-01-12T01:54:13.052Z,20.65
2018-01-12T01:56:41.953Z,22.65
2018-01-12T01:59:10.102Z,22.42
2018-01-12T02:01:39.003Z,24.37
2018-01-12T02:04:07.897Z,21.70
2018-01-12T02:06:36.778Z,23.87
2018-01-12T02:09:05.675Z,21.77
2018-01-12T02:11:34.656Z,22.67
2018-01-12T02:14:03.553Z,21.62
2018-01-12T02:16:32.540Z,21.30
2018-01-12T02:19:01.453Z,20.00
2018-01-12T02:21:29.592Z,22.00
2018-01-12T02:23:58.485Z,23.37
2018-01-12T02:26:28.395Z,22.75
2018-01-12T02:28:56.554Z,17.45
2018-01-12T02:31:24.654Z,24.95
2018-01-12T02:33:53.543Z,21.87
2018-01-12T02:36:22.449Z,27.13
2018-01-12T02:38:50.652Z,24.27
2018-01-12T02:41:18.779Z,27.80
2018-01-12T02:43:47.672Z,25.90
2018-01-12T02:46:16.653Z,24.45
2018-01-12T02:48:45.648Z,21.12
2018-01-12T02:51:14.537Z,24.75
2018-01-12T02:53:43.447Z,24.17
2018-01-12T02:56:11.577Z,25.35
2018-01-12T02:58:39.710Z,25.73
2018-01-12T03:01:07.983Z,26.73
2018-01-12T03:03:36.092Z,23.27
2018-01-12T03:06:05.760Z,22.45
2018-01-12T03:08:34.634Z,21.23
2018-01-12T03:11:02.765Z,20.62
2018-01-12T03:13:30.914Z,26.15
2018-01-12T03:15:59.037Z,27.30
2018-01-12T03:18:27.934Z,21.50
2018-01-12T03:20:56.072Z,27.08
2018-01-12T03:23:24.307Z,24.77
2018-01-12T03:25:52.412Z,24.80
2018-01-12T03:28:20.593Z,23.25
2018-01-12T03:30:48.722Z,22.48
2018-01-12T03:33:16.864Z,29.20
2018-01-12T03:35:45.786Z,26.77
2018-01-12T03:38:13.890Z,26.48
2018-01-12T03:40:42.027Z,28.38
2018-01-12T03:43:10.200Z,27.27
2018-01-12T03:45:38.330Z,34.53
2018-01-12T03:48:06.457Z,28.87
2018-01-12T03:50:34.570Z,33.78
2018-01-12T03:53:02.794Z,31.30
2018-01-12T03:55:30.908Z,31.87
2018-01-12T03:57:59.038Z,33.55
2018-01-12T04:00:27.237Z,30.30
2018-01-12T04:02:55.353Z,35.88
2018-01-12T04:05:24.247Z,29.33
2018-01-12T04:07:52.402Z,32.58
2018-01-12T04:10:21.342Z,31.92
2018-01-12T04:12:49.467Z,32.85
2018-01-12T04:15:17.589Z,26.27
2018-01-12T04:17:45.737Z,26.77
2018-01-12T04:20:14.648Z,30.10
2018-01-12T04:22:42.837Z,31.90
2018-01-12T04:25:10.955Z,32.23
2018-01-12T04:27:39.083Z,36.25
2018-01-12T04:30:07.226Z,26.30
2018-01-12T04:32:36.243Z,32.17
2018-01-12T04:35:05.103Z,29.60
2018-01-12T04:37:34.003Z,26.02
2018-01-12T04:40:02.118Z,27.13
2018-01-12T04:42:30.264Z,26.30
2018-01-12T04:44:58.386Z,25.15
2018-01-12T04:47:27.299Z,26.17
2018-01-12T04:49:56.286Z,26.75
2018-01-12T04:52:25.172Z,23.67
2018-01-12T04:54:54.085Z,27.73
2018-01-12T04:57:22.243Z,25.12
2018-01-12T04:59:51.148Z,24.87
2018-01-12T05:02:19.278Z,25.15
2018-01-12T05:04:48.931Z,21.20
2018-01-12T05:07:17.058Z,28.12
2018-01-12T05:09:45.300Z,27.57
2018-01-12T05:12:13.411Z,23.23
2018-01-12T05:14:42.321Z,27.10
2018-01-12T05:17:11.408Z,33.85
2018-01-12T05:19:39.561Z,28.35
2018-01-12T05:22:07.698Z,26.12
2018-01-12T05:24:35.839Z,31.48
2018-01-12T05:27:03.998Z,31.73
2018-01-12T05:29:32.919Z,31.40
2018-01-12T05:32:02.316Z,28.42
2018-01-12T05:34:32.387Z,25.08
2018-01-12T05:37:00.591Z,27.52
2018-01-12T05:39:28.852Z,26.52
2018-01-12T05:41:57.047Z,24.35
2018-01-12T05:44:25.236Z,25.85
2018-01-12T05:46:53.490Z,28.40
2018-01-12T05:49:21.688Z,31.25
2018-01-12T05:51:51.297Z,29.45
2018-01-12T05:54:19.441Z,29.20
2018-01-12T05:56:47.572Z,25.23
2018-01-12T05:59:15.747Z,28.45
2018-01-12T06:01:55.727Z,31.17
2018-01-12T06:04:36.636Z,29.95
2018-01-12T06:07:05.599Z,31.35
2018-01-12T06:09:34.490Z,25.08
2018-01-12T06:12:03.475Z,23.98
2018-01-12T06:14:32.355Z,29.95
2018-01-12T06:17:01.396Z,29.70
2018-01-12T06:19:29.526Z,26.08
2018-01-12T06:21:58.416Z,31.27
2018-01-12T06:24:27.335Z,27.20
2018-01-12T06:26:55.458Z,30.17
2018-01-12T06:29:23.604Z,27.10
2018-01-12T06:31:51.759Z,24.40
2018-01-12T06:34:20.725Z,27.62
2018-01-12T06:36:49.620Z,26.55
2018-01-12T06:39:17.786Z,24.60
2018-01-12T06:41:45.906Z,33.17
2018-01-12T06:44:14.065Z,24.00
2018-01-12T06:46:42.178Z,27.65
2018-01-12T06:49:11.814Z,28.60
2018-01-12T06:51:40.707Z,28.45
2018-01-12T06:54:08.843Z,29.25
2018-01-12T06:56:36.981Z,29.80
2018-01-12T06:59:05.247Z,29.58
2018-01-12T07:01:34.136Z,26.60
2018-01-12T07:04:03.033Z,28.55
2018-01-12T07:06:31.136Z,30.00
2018-01-12T07:08:59.275Z,31.90
2018-01-12T07:11:27.414Z,27.37
2018-01-12T07:13:56.332Z,26.73
2018-01-12T07:16:24.508Z,33.92
2018-01-12T07:18:52.640Z,31.35
2018-01-12T07:21:33.382Z,34.45
2018-01-12T07:24:01.503Z,32.10
2018-01-12T07:26:30.775Z,38.35
2018-01-12T07:29:00.074Z,34.28
2018-01-12T07:31:28.637Z,33.50
2018-01-12T07:33:56.782Z,33.92
2018-01-12T07:36:24.960Z,37.88
2018-01-12T07:38:53.066Z,38.08
2018-01-12T07:41:21.230Z,32.30
2018-01-12T07:43:49.376Z,32.10
2018-01-12T07:46:17.474Z,30.88
2018-01-12T07:48:45.602Z,36.75
2018-01-12T07:51:13.727Z,33.83
2018-01-12T07:53:41.862Z,34.75
2018-01-12T07:56:09.986Z,33.03
2018-01-12T07:58:38.109Z,32.72
2018-01-12T08:01:11.972Z,33.47
2018-01-12T08:03:40.904Z,32.78
2018-01-12T08:06:09.005Z,27.13
2018-01-12T08:08:37.914Z,25.73
2018-01-12T08:11:06.135Z,25.33
2018-01-12T08:13:34.991Z,25.30
2018-01-12T08:16:03.935Z,25.83
2018-01-12T08:18:32.087Z,27.15
2018-01-12T08:21:00.972Z,26.33
2018-01-12T08:23:29.849Z,24.05
2018-01-12T08:25:57.987Z,20.83
2018-01-12T08:28:26.103Z,26.87
2018-01-12T08:30:54.243Z,23.58
2018-01-12T08:33:23.135Z,23.00
2018-01-12T08:35:52.066Z,24.30
2018-01-12T08:38:20.939Z,21.67
2018-01-12T08:40:49.131Z,24.75
2018-01-12T08:43:17.235Z,25.02
2018-01-12T08:45:45.354Z,28.00
2018-01-12T08:48:13.479Z,28.55
2018-01-12T08:50:41.619Z,24.42
2018-01-12T08:53:09.743Z,25.95
2018-01-12T08:55:37.866Z,27.95
2018-01-12T08:58:05.991Z,19.98
2018-01-12T09:00:34.127Z,20.53
2018-01-12T09:03:02.266Z,23.25
2018-01-12T09:05:30.393Z,20.50
2018-01-12T09:07:58.518Z,21.25
2018-01-12T09:10:26.655Z,24.30
2018-01-12T09:12:55.545Z,21.52
2018-01-12T09:15:29.408Z,19.30
2018-01-12T09:18:00.425Z,21.65
2018-01-12T09:20:34.298Z,22.10
2018-01-12T09:23:11.997Z,19.85
2018-01-12T09:25:40.920Z,20.83
2018-01-12T09:28:09.025Z,18.75
2018-01-12T09:30:37.171Z,20.08
2018-01-12T09:33:05.299Z,18.35
2018-01-12T09:35:34.195Z,20.90
2018-01-12T09:38:15.108Z,16.85
2018-01-12T09:40:46.766Z,17.98
2018-01-12T09:43:14.925Z,17.40
2018-01-12T09:45:43.917Z,18.05
2018-01-12T09:48:37.588Z,17.90
2018-01-12T09:51:05.696Z,19.92
2018-01-12T09:53:33.826Z,17.77
2018-01-12T09:56:02.783Z,16.42
2018-01-12T09:58:30.901Z,16.62
2018-01-12T10:01:02.998Z,20.10
2018-01-12T10:03:31.140Z,19.12
2018-01-12T10:05:59.269Z,17.62
2018-01-12T10:08:27.424Z,20.23
2018-01-12T10:10:55.653Z,18.52
2018-01-12T10:13:23.776Z,28.55
2018-01-12T10:15:52.003Z,18.62
2018-01-12T10:18:34.987Z,16.23
2018-01-12T10:21:06.776Z,17.40
2018-01-12T10:23:35.659Z,17.27
2018-01-12T10:26:03.786Z,17.15
2018-01-12T10:28:31.908Z,18.60
2018-01-12T10:31:00.055Z,16.50
2018-01-12T10:36:39.644Z,15.65
2018-01-12T10:39:19.615Z,14.30
2018-01-12T10:41:59.580Z,17.58
2018-01-12T10:44:27.713Z,18.45
2018-01-12T10:47:07.660Z,17.87
2018-01-12T10:49:35.803Z,16.65
2018-01-12T10:52:08.207Z,17.83
2018-01-12T10:54:36.351Z,18.03
2018-01-12T10:57:05.249Z,23.00
2018-01-12T10:59:34.137Z,21.90
2018-01-12T11:02:02.289Z,18.87
2018-01-12T11:04:31.196Z,15.07
2018-01-12T11:07:00.119Z,16.92
2018-01-12T11:09:28.995Z,17.60
2018-01-12T11:11:57.176Z,21.23
2018-01-12T11:14:26.047Z,17.67
2018-01-12T11:16:54.240Z,19.60
2018-01-12T11:19:22.356Z,18.10
2018-01-12T11:21:50.502Z,16.83
2018-01-12T11:24:18.638Z,16.17
2018-01-12T11:26:46.775Z,18.37
2018-01-12T11:29:14.900Z,20.65
2018-01-12T11:31:43.018Z,19.02
2018-01-12T11:34:11.159Z,20.10
2018-01-12T11:36:39.317Z,20.35
2018-01-12T11:39:08.205Z,25.50
2018-01-12T11:41:36.335Z,20.08
2018-01-12T11:44:04.552Z,18.70
2018-01-12T11:46:33.451Z,21.17
2018-01-12T11:49:01.553Z,17.30
2018-01-12T11:51:29.685Z,21.02
2018-01-12T11:53:57.809Z,17.73
2018-01-12T11:56:25.925Z,22.13
2018-01-12T11:58:54.078Z,19.90
2018-01-12T12:01:23.688Z,20.80
2018-01-12T12:03:51.815Z,19.98
2018-01-12T12:06:20.059Z,19.35
2018-01-12T12:08:48.159Z,19.90
2018-01-12T12:11:16.402Z,20.88
2018-01-12T12:13:45.292Z,19.00
2018-01-12T12:16:13.466Z,18.87
2018-01-12T12:18:42.343Z,19.40
2018-01-12T12:21:10.479Z,20.15
2018-01-12T12:23:38.662Z,18.23
2018-01-12T12:26:07.555Z,20.55
2018-01-12T12:28:36.487Z,20.62
2018-01-12T12:31:04.651Z,16.95
2018-01-12T12:33:33.565Z,17.77
2018-01-12T12:36:01.670Z,18.12
2018-01-12T12:38:29.834Z,17.10
2018-01-12T12:40:57.962Z,21.48
2018-01-12T12:43:26.101Z,18.40
2018-01-12T12:45:54.228Z,21.50
2018-01-12T12:48:23.196Z,18.87
2018-01-12T12:50:51.304Z,20.02
2018-01-12T12:53:19.458Z,23.95
2018-01-12T12:55:47.599Z,20.70
2018-01-12T12:58:22.877Z,22.52
2018-01-12T13:00:50.997Z,23.37
2018-01-12T13:03:19.144Z,22.58
2018-01-12T13:05:47.289Z,22.10
2018-01-12T13:08:15.425Z,25.50
2018-01-12T13:10:43.565Z,23.98
2018-01-12T13:13:11.703Z,24.42
2018-01-12T13:15:39.825Z,21.70
2018-01-12T13:18:07.996Z,20.90
2018-01-12T13:20:36.892Z,22.85
2018-01-12T13:23:05.037Z,20.85
2018-01-12T13:25:33.193Z,24.23
2018-01-12T13:28:01.328Z,18.62
2018-01-12T13:30:29.505Z,19.48
2018-01-12T13:32:58.780Z,19.05
2018-01-12T13:35:26.928Z,22.52
2018-01-12T13:37:55.081Z,22.17
2018-01-12T13:40:23.212Z,17.67
2018-01-12T13:42:52.284Z,20.65
2018-01-12T13:45:21.174Z,21.60
2018-01-12T13:47:50.070Z,20.52
2018-01-12T13:50:18.991Z,19.23
2018-01-12T13:52:47.108Z,21.35
2018-01-12T13:55:15.247Z,22.60
2018-01-12T13:57:43.380Z,23.05
2018-01-12T14:00:12.285Z,26.30
2018-01-12T14:02:40.415Z,24.58
2018-01-12T14:05:08.543Z,20.20
2018-01-12T14:07:36.671Z,20.48
2018-01-12T14:10:05.577Z,21.20
2018-01-12T14:12:33.712Z,18.12
2018-01-12T14:15:01.847Z,23.85
2018-01-12T14:17:29.958Z,22.80
2018-01-12T14:19:58.084Z,20.37
2018-01-12T14:22:26.222Z,21.40
2018-01-12T14:24:55.134Z,23.93
2018-01-12T14:27:23.284Z,29.67
2018-01-12T14:29:51.410Z,22.08
2018-01-12T14:32:19.540Z,18.85
2018-01-12T14:34:48.443Z,21.08
2018-01-12T14:37:16.633Z,20.52
2018-01-12T14:39:45.519Z,20.03
2018-01-12T14:42:14.410Z,25.52
2018-01-12T14:44:43.412Z,23.85
2018-01-12T14:47:11.523Z,21.50
2018-01-12T14:49:39.750Z,25.20
2018-01-12T14:52:08.741Z,27.15
2018-01-12T14:54:36.854Z,25.57
2018-01-12T14:57:05.085Z,23.45
2018-01-12T14:59:33.966Z,25.45
2018-01-12T15:02:02.151Z,26.17
2018-01-12T15:04:30.322Z,24.50
2018-01-12T15:06:59.185Z,27.45
2018-01-12T15:09:28.308Z,26.33
2018-01-12T15:11:57.218Z,21.00
2018-01-12T15:14:25.373Z,25.92
2018-01-12T15:16:53.487Z,26.33
2018-01-12T15:19:21.617Z,24.37
2018-01-12T15:21:49.799Z,27.65
2018-01-12T15:24:17.919Z,25.07
2018-01-12T15:26:46.828Z,23.55
2018-01-12T15:29:15.747Z,31.33
2018-01-12T15:31:43.913Z,27.00
2018-01-12T15:34:12.800Z,25.58
2018-01-12T15:36:40.974Z,29.73
2018-01-12T15:39:09.992Z,27.70
2018-01-12T15:41:38.256Z,28.58
2018-01-12T15:44:06.368Z,23.80
2018-01-12T15:46:34.587Z,29.00
2018-01-12T15:49:03.511Z,23.87
2018-01-12T15:51:31.650Z,30.52
2018-01-12T15:54:00.642Z,26.70
2018-01-12T15:56:29.500Z,27.83
2018-01-12T15:58:57.643Z,28.00
2018-01-12T16:01:25.806Z,24.67
2018-01-12T16:03:53.971Z,26.30
2018-01-12T16:06:22.127Z,25.85
2018-01-12T16:08:50.298Z,26.40
2018-01-12T16:11:18.481Z,28.33
2018-01-12T16:13:46.680Z,29.87
2018-01-12T16:16:14.825Z,29.35
2018-01-12T16:18:42.973Z,28.98
2018-01-12T16:21:11.936Z,33.30
2018-01-12T16:23:40.152Z,34.77
2018-01-12T16:26:09.047Z,30.33
2018-01-12T16:28:37.213Z,32.33
2018-01-12T16:31:06.207Z,32.03
2018-01-12T16:33:35.097Z,34.47
2018-01-12T16:36:03.271Z,30.48
2018-01-12T16:38:32.164Z,31.33
2018-01-12T16:41:00.332Z,32.15
2018-01-12T16:43:29.337Z,34.47
2018-01-12T16:45:57.444Z,32.03
2018-01-12T16:48:25.669Z,36.72
2018-01-12T16:50:54.559Z,39.95
2018-01-12T16:53:22.732Z,31.75
2018-01-12T16:55:51.639Z,37.00
2018-01-12T16:58:19.780Z,34.30
2018-01-12T17:00:47.898Z,37.77
2018-01-12T17:03:16.060Z,35.90
2018-01-12T17:05:44.213Z,34.20
2018-01-12T17:08:12.387Z,34.75
2018-01-12T17:10:41.272Z,39.17
2018-01-12T17:13:09.389Z,35.38
2018-01-12T17:15:37.532Z,36.50
2018-01-12T17:18:05.701Z,38.65
2018-01-12T17:20:33.881Z,32.53
2018-01-12T17:23:01.988Z,35.72
2018-01-12T17:25:30.122Z,36.97
2018-01-12T17:27:58.288Z,38.47
2018-01-12T17:30:26.463Z,31.23
2018-01-12T17:32:54.562Z,33.47
2018-01-12T17:35:22.801Z,39.75
2018-01-12T17:37:51.690Z,32.15
2018-01-12T17:40:20.582Z,37.10
2018-01-12T17:42:48.692Z,31.25
2018-01-12T17:45:16.930Z,34.90
2018-01-12T17:47:45.099Z,31.33
2018-01-12T17:50:13.963Z,31.60
2018-01-12T17:52:42.878Z,30.77
2018-01-12T17:55:11.015Z,32.13
2018-01-12T17:57:39.160Z,31.75
2018-01-12T18:00:08.783Z,30.90
2018-01-12T18:02:36.966Z,32.42
2018-01-12T18:05:05.856Z,27.60
2018-01-12T18:07:34.763Z,29.92
2018-01-12T18:10:03.684Z,34.87
2018-01-12T18:12:31.847Z,28.80
2018-01-12T18:15:00.736Z,31.45
2018-01-12T18:17:28.860Z,33.67
2018-01-12T18:19:56.982Z,33.22
2018-01-12T18:22:25.139Z,32.35
2018-01-12T18:24:53.329Z,30.30
2018-01-12T18:27:22.208Z,27.48
2018-01-12T18:29:50.352Z,31.35
2018-01-12T18:32:18.561Z,29.87
2018-01-12T18:34:47.554Z,29.35
2018-01-12T18:37:16.427Z,30.20
2018-01-12T18:39:44.545Z,26.60
2018-01-12T18:42:12.695Z,28.17
2018-01-12T18:44:40.822Z,33.80
2018-01-12T18:47:09.718Z,32.50
2018-01-12T18:49:38.615Z,32.50
2018-01-12T18:52:07.542Z,30.98
2018-01-12T18:54:35.659Z,30.10
2018-01-12T18:57:03.882Z,36.50
2018-01-12T18:59:31.992Z,30.77
2018-01-12T19:02:00.128Z,33.27
2018-01-12T19:04:28.252Z,37.05
2018-01-12T19:06:57.285Z,31.75
2018-01-12T19:09:25.427Z,32.40
2018-01-12T19:11:54.329Z,37.20
2018-01-12T19:14:22.520Z,34.72
2018-01-12T19:16:51.396Z,31.23
2018-01-12T19:19:20.291Z,44.35
2018-01-12T19:21:48.419Z,32.20
2018-01-12T19:24:16.555Z,30.45
2018-01-12T19:26:44.821Z,33.97
2018-01-12T19:29:13.101Z,28.77
2018-01-12T19:31:42.135Z,29.70
2018-01-12T19:34:10.267Z,28.33
2018-01-12T19:36:38.434Z,27.40
2018-01-12T19:39:06.717Z,31.50
2018-01-12T19:41:34.849Z,41.17
2018-01-12T19:44:03.754Z,31.70
2018-01-12T19:46:32.672Z,29.65
2018-01-12T19:49:00.822Z,30.90
2018-01-12T19:51:28.959Z,30.77
2018-01-12T19:53:57.159Z,28.10
2018-01-12T19:56:26.069Z,29.30
2018-01-12T19:58:54.983Z,30.23
2018-01-12T20:01:23.110Z,29.20
2018-01-12T20:03:51.298Z,34.10
2018-01-12T20:06:20.303Z,32.72
2018-01-12T20:08:48.470Z,27.83
2018-01-12T20:11:16.609Z,26.10
2018-01-12T20:13:45.571Z,29.77
2018-01-12T20:16:13.734Z,30.80
2018-01-12T20:18:41.982Z,39.10
2018-01-12T20:21:10.154Z,32.90
2018-01-12T20:23:38.309Z,33.27
2018-01-12T20:26:06.470Z,38.28
2018-01-12T20:28:39.295Z,34.60
2018-01-12T20:31:08.272Z,32.83
2018-01-12T20:33:37.302Z,31.70
2018-01-12T20:36:05.450Z,39.28
2018-01-12T20:38:34.370Z,34.93
2018-01-12T20:41:02.521Z,31.15
2018-01-12T20:43:30.962Z,30.85
2018-01-12T20:45:59.196Z,36.05
2018-01-12T20:48:27.370Z,52.30
2018-01-12T20:50:55.546Z,33.67
2018-01-12T20:53:23.723Z,28.80
2018-01-12T20:55:51.904Z,31.58
2018-01-12T20:58:20.051Z,32.03
2018-01-12T21:00:48.246Z,32.30
2018-01-12T21:03:16.908Z,32.35
2018-01-12T21:05:45.062Z,40.40
2018-01-12T21:08:14.037Z,38.50
2018-01-12T21:10:42.174Z,36.15
2018-01-12T21:13:14.050Z,33.22
2018-01-12T21:15:42.193Z,38.17
2018-01-12T21:18:11.086Z,34.03
2018-01-12T21:20:39.237Z,35.00
2018-01-12T21:23:07.494Z,37.90
2018-01-12T21:25:36.616Z,36.92
2018-01-12T21:28:04.778Z,31.52
2018-01-12T21:30:32.937Z,31.70
2018-01-12T21:33:02.485Z,24.58
2018-01-12T21:35:30.748Z,30.00
2018-01-12T21:37:58.853Z,28.08
2018-01-12T21:40:27.285Z,25.65
2018-01-12T21:42:55.614Z,26.95
2018-01-12T21:45:23.820Z,26.58
2018-01-12T21:47:52.003Z,28.67
2018-01-12T21:50:20.897Z,24.10
2018-01-12T21:52:49.033Z,24.33
2018-01-12T21:55:17.178Z,24.03
2018-01-12T21:57:45.372Z,23.20
2018-01-12T22:00:13.528Z,22.85
2018-01-12T22:02:42.442Z,29.12
2018-01-12T22:05:11.494Z,29.77
2018-01-12T22:07:39.679Z,25.23
2018-01-12T22:10:08.688Z,26.77
2018-01-12T22:12:37.206Z,23.52
2018-01-12T22:15:05.405Z,24.27
2018-01-12T22:17:34.065Z,21.73
2018-01-12T22:20:02.474Z,22.02
2018-01-12T22:22:30.669Z,23.33
2018-01-12T22:24:59.578Z,23.83
2018-01-12T22:27:27.715Z,24.77
2018-01-12T22:29:55.986Z,29.52
2018-01-12T22:32:24.987Z,25.27
2018-01-12T22:34:54.184Z,25.12
2018-01-12T22:37:22.312Z,24.05
2018-01-12T22:39:51.174Z,23.30
2018-01-12T22:42:20.089Z,28.87
2018-01-12T22:44:48.957Z,24.15
2018-01-12T22:47:17.095Z,28.27
2018-01-12T22:49:45.287Z,27.52
2018-01-12T22:52:13.563Z,22.37
2018-01-12T22:54:41.782Z,28.20
2018-01-12T22:57:10.759Z,27.17
2018-01-12T22:59:39.017Z,29.60
2018-01-12T23:02:20.969Z,21.40
2018-01-12T23:04:49.365Z,25.67
2018-01-12T23:07:17.525Z,29.33
2018-01-12T23:09:45.671Z,28.17
2018-01-12T23:12:14.570Z,22.90
2018-01-12T23:14:42.680Z,26.00
2018-01-12T23:17:10.820Z,26.15
2018-01-12T23:19:38.930Z,26.87
2018-01-12T23:22:07.075Z,25.88
2018-01-12T23:24:35.207Z,24.48
2018-01-12T23:27:03.398Z,27.13
2018-01-12T23:29:32.293Z,23.45
2018-01-12T23:32:00.450Z,22.45
2018-01-12T23:34:29.478Z,22.05
2018-01-12T23:36:57.722Z,23.55
2018-01-12T23:39:25.834Z,22.40
2018-01-12T23:41:53.974Z,25.25
2018-01-12T23:44:22.854Z,28.05
2018-01-12T23:46:51.778Z,23.55
2018-01-12T23:49:19.896Z,22.98
2018-01-12T23:51:48.018Z,26.83
2018-01-12T23:54:16.151Z,21.70
2018-01-12T23:56:45.038Z,31.05
2018-01-12T23:59:13.949Z,26.30
